Airfield :
LOGIN :

Register | Disclaimer

   EN    FR    IT 

 










Legend :    VFR   Marginal VFR   IFR   Intensive IFR   Very Intensive IFR
Visi :
Ceiling :
>= 8 km
>= 3000ft
5 to 8 km
1000 to 3000 ft
1500m to 5 km
500 to 1000 ft
800 to 1500m
200 to 500 ft
< 800m
< 200 ft
Symbols :   Thunderstorms  Fog  Heavy snow  Heavy precipitations  Wind > 20 kt
SIGMETs :     Misc.  Thunderstorms  Icing  Turbulence  Mountain Waves  Volcanic Ashes







- Airport Elevation : 183 ft
- IATA code : HAJ


EDDV - Hanover/Langenhagen Int.

CURRENT METAR :
  • 121550Z 25007KT 220V280 7000 -RASN BKN005 01/00 Q1008 NOSIG

EXPIRED METARs :
  • 121520Z 26009KT 220V290 9999 -RASN BKN005 02/00 Q1007 NOSIG
  • 121450Z 27011KT 9999 -RASN BKN005 02/01 Q1006 TEMPO 27015G25KT
  • 121420Z 28013KT 9999 -RASN BKN005 02/01 Q1005 TEMPO 27015G25KT
  • 121350Z 28013KT 8000 -RASN BKN006 02/01 Q1004 TEMPO 27015G25KT
  • 121320Z 27012KT 230V290 8000 -RASN BKN005 01/00 Q1003 TEMPO 27015G25KT

TAF TAF EDDV
Valid from the 12 at 12:00 until the 13 at 12:00 UTC


121100Z 1212/1312 26012KT 7000 BKN006
TEMPO 1212/1217 3500 -RASN
TEMPO 1214/1224 BKN012
BECMG 1300/1303 20008KT BKN025
BECMG 1309/1311 OVC005
No reported NOTAMs for that airfield.



MET'MAP, your aeronautical weather chart ! - Copyright ORBIFLY December 2007 - Disclaimer

ORBIFLY MET'MAP TEAM :

Programming & Development : Alexandra Zaïnal
Concept & Development : Baudouin d'Aumeries
Co-Development & Prog : Marc-Olivier Méhu
Technical & hardware support : Manuel Goepfert

Contact : metmap@orbifly.com




SOURCES & CREDITS :

   NOAA